Huvudsida
METAR-TAF:

METAR-TAF

Flygplatser :

Uruguaiana Aeroporto

Uruguaiana, Rio Grande do Sul, Brasilien

latitud: 29-47S, longitud: 057-02W, höjd: 74 m

METAR: saknas

Tid: 09:40 (12:40 UTC)

Väderprognos

Denna rapport gjordes för 3 timmar och 40 minuter sedan, klockan 09:00 UTC
Prognos gäller från 07 kl. 12 UTC till 07 kl. 24 UTC
Vind 15 kt från väst
Sikt 10 km eller mer
Inga moln under 1 500 m eller inga cumulonimbus
Blir
från 07 kl. 20 UTC till 07 kl. 22 UTC
Vind 12 kt från väst/sydväst
Sikt 10 km eller mer
Spridda moln på en höjd av 3000 ft

TAF: SBUG 070900Z 0712/0724 28015KT CAVOK TN15/0712Z TX24/0717Z BECMG 0720/0722 24012KT 9999 SCT030 RMK PEN

Aktuella väderrapporter och prognoser från 4000 flygplatser (METAR- och TAF-rapporter).

De tillgängliga stationerna syns som gula och röda prickar på kartan.

För musen över prickarna för att se namnen på stationerna.

Klicka sedan för att få väderrapporter och prognoser.

För att ändra kartan: Klicka på de gröna knapparna med ett svart kors på för att zooma in; den gröna knappen med ett streck på för att zooma ut; eller på de gröna pilarna för angränsande kartor.


METAR-TAF: